sensor_id;sensor_type;location;lat;lon;timestamp;P1;durP1;ratioP1;P2;durP2;ratioP2
6561;SDS011;3314;50.890;4.722;2023-05-07T00:01:00;11.1;;;3.0;;
6561;SDS011;3314;50.890;4.722;2023-05-07T00:03:02;8.4;;;2.5;;
6561;SDS011;3314;50.890;4.722;2023-05-07T00:05:02;10.8;;;2.8;;
6561;SDS011;3314;50.890;4.722;2023-05-07T00:07:02;9.2;;;2.7;;
6561;SDS011;3314;50.890;4.722;2023-05-07T00:09:02;8.3;;;2.5;;
6561;SDS011;3314;50.890;4.722;2023-05-07T00:11:02;11.9;;;3.6;;
6561;SDS011;3314;50.890;4.722;2023-05-07T00:13:01;10.2;;;3.4;;
6561;SDS011;3314;50.890;4.722;2023-05-07T00:15:02;9.9;;;2.8;;
6561;SDS011;3314;50.890;4.722;2023-05-07T00:17:01;8.9;;;2.8;;
6561;SDS011;3314;50.890;4.722;2023-05-07T00:19:01;11.3;;;3.4;;
6561;SDS011;3314;50.890;4.722;2023-05-07T00:21:01;10.7;;;2.9;;
6561;SDS011;3314;50.890;4.722;2023-05-07T00:23:01;12.2;;;3.7;;
6561;SDS011;3314;50.890;4.722;2023-05-07T00:25:00;11.0;;;3.0;;
6561;SDS011;3314;50.890;4.722;2023-05-07T00:27:00;11.5;;;3.0;;
6561;SDS011;3314;50.890;4.722;2023-05-07T00:29:00;11.2;;;3.2;;
6561;SDS011;3314;50.890;4.722;2023-05-07T00:31:00;13.1;;;3.4;;
6561;SDS011;3314;50.890;4.722;2023-05-07T00:32:59;11.1;;;3.4;;
6561;SDS011;3314;50.890;4.722;2023-05-07T00:34:59;10.5;;;2.8;;
6561;SDS011;3314;50.890;4.722;2023-05-07T00:36:59;17.6;;;3.7;;
6561;SDS011;3314;50.890;4.722;2023-05-07T00:38:59;10.9;;;2.8;;
6561;SDS011;3314;50.890;4.722;2023-05-07T00:40:59;9.3;;;2.9;;
6561;SDS011;3314;50.890;4.722;2023-05-07T00:43:00;11.1;;;3.4;;
6561;SDS011;3314;50.890;4.722;2023-05-07T00:45:00;10.7;;;3.1;;
6561;SDS011;3314;50.890;4.722;2023-05-07T00:46:59;10.0;;;3.2;;
6561;SDS011;3314;50.890;4.722;2023-05-07T00:49:01;10.1;;;2.7;;
6561;SDS011;3314;50.890;4.722;2023-05-07T00:51:00;11.1;;;3.3;;
6561;SDS011;3314;50.890;4.722;2023-05-07T00:53:00;12.0;;;2.8;;
6561;SDS011;3314;50.890;4.722;2023-05-07T00:55:00;12.9;;;3.3;;
6561;SDS011;3314;50.890;4.722;2023-05-07T00:57:02;11.4;;;3.1;;
6561;SDS011;3314;50.890;4.722;2023-05-07T00:59:01;12.4;;;3.2;;
6561;SDS011;3314;50.890;4.722;2023-05-07T01:01:01;11.7;;;2.6;;
6561;SDS011;3314;50.890;4.722;2023-05-07T01:03:01;9.2;;;2.4;;
6561;SDS011;3314;50.890;4.722;2023-05-07T01:05:00;10.5;;;2.7;;
6561;SDS011;3314;50.890;4.722;2023-05-07T01:07:00;9.6;;;3.0;;
6561;SDS011;3314;50.890;4.722;2023-05-07T01:09:00;11.1;;;3.0;;
6561;SDS011;3314;50.890;4.722;2023-05-07T01:11:01;12.1;;;3.1;;
6561;SDS011;3314;50.890;4.722;2023-05-07T01:13:01;10.4;;;2.5;;
6561;SDS011;3314;50.890;4.722;2023-05-07T01:15:01;10.0;;;2.5;;
6561;SDS011;3314;50.890;4.722;2023-05-07T01:17:01;11.4;;;3.3;;
6561;SDS011;3314;50.890;4.722;2023-05-07T01:19:01;10.2;;;2.7;;
6561;SDS011;3314;50.890;4.722;2023-05-07T01:21:00;10.2;;;3.1;;
6561;SDS011;3314;50.890;4.722;2023-05-07T01:23:01;11.3;;;3.6;;
6561;SDS011;3314;50.890;4.722;2023-05-07T01:25:03;8.3;;;2.9;;
6561;SDS011;3314;50.890;4.722;2023-05-07T01:26:52;11.5;;;3.1;;
6561;SDS011;3314;50.890;4.722;2023-05-07T01:28:52;10.6;;;3.2;;
6561;SDS011;3314;50.890;4.722;2023-05-07T01:30:53;13.8;;;3.3;;
6561;SDS011;3314;50.890;4.722;2023-05-07T01:32:55;8.7;;;3.0;;
6561;SDS011;3314;50.890;4.722;2023-05-07T01:34:55;11.6;;;3.5;;
6561;SDS011;3314;50.890;4.722;2023-05-07T01:36:58;11.0;;;3.0;;
6561;SDS011;3314;50.890;4.722;2023-05-07T01:38:58;15.7;;;3.5;;
6561;SDS011;3314;50.890;4.722;2023-05-07T01:40:58;9.3;;;2.4;;
6561;SDS011;3314;50.890;4.722;2023-05-07T01:42:59;10.8;;;3.1;;
6561;SDS011;3314;50.890;4.722;2023-05-07T01:44:59;12.6;;;3.0;;
6561;SDS011;3314;50.890;4.722;2023-05-07T01:46:59;9.0;;;3.0;;
6561;SDS011;3314;50.890;4.722;2023-05-07T01:48:59;11.1;;;3.5;;
6561;SDS011;3314;50.890;4.722;2023-05-07T01:50:59;12.5;;;3.6;;
6561;SDS011;3314;50.890;4.722;2023-05-07T01:52:59;12.2;;;3.2;;
6561;SDS011;3314;50.890;4.722;2023-05-07T01:54:50;11.2;;;3.6;;
6561;SDS011;3314;50.890;4.722;2023-05-07T01:56:50;10.8;;;3.7;;
6561;SDS011;3314;50.890;4.722;2023-05-07T01:58:50;13.4;;;3.2;;
6561;SDS011;3314;50.890;4.722;2023-05-07T02:00:50;8.4;;;3.0;;
6561;SDS011;3314;50.890;4.722;2023-05-07T02:02:49;11.4;;;3.8;;
6561;SDS011;3314;50.890;4.722;2023-05-07T02:04:49;10.4;;;3.2;;
6561;SDS011;3314;50.890;4.722;2023-05-07T02:06:49;10.5;;;3.9;;
6561;SDS011;3314;50.890;4.722;2023-05-07T02:08:48;9.9;;;3.4;;
6561;SDS011;3314;50.890;4.722;2023-05-07T02:10:48;14.1;;;3.2;;
6561;SDS011;3314;50.890;4.722;2023-05-07T02:12:48;10.3;;;3.5;;
6561;SDS011;3314;50.890;4.722;2023-05-07T02:14:48;11.3;;;3.8;;
6561;SDS011;3314;50.890;4.722;2023-05-07T02:16:48;11.5;;;4.0;;
6561;SDS011;3314;50.890;4.722;2023-05-07T02:18:47;8.9;;;3.6;;
6561;SDS011;3314;50.890;4.722;2023-05-07T02:20:47;12.7;;;4.3;;
6561;SDS011;3314;50.890;4.722;2023-05-07T02:22:47;11.9;;;3.9;;
6561;SDS011;3314;50.890;4.722;2023-05-07T02:24:47;11.8;;;4.1;;
6561;SDS011;3314;50.890;4.722;2023-05-07T02:26:47;13.3;;;3.9;;
6561;SDS011;3314;50.890;4.722;2023-05-07T02:28:46;13.4;;;4.5;;
6561;SDS011;3314;50.890;4.722;2023-05-07T02:30:46;13.3;;;3.6;;
6561;SDS011;3314;50.890;4.722;2023-05-07T02:32:46;12.3;;;3.9;;
6561;SDS011;3314;50.890;4.722;2023-05-07T02:34:46;10.8;;;3.8;;
6561;SDS011;3314;50.890;4.722;2023-05-07T02:36:46;17.2;;;4.0;;
6561;SDS011;3314;50.890;4.722;2023-05-07T02:38:46;11.4;;;3.5;;
6561;SDS011;3314;50.890;4.722;2023-05-07T02:40:45;16.1;;;4.1;;
6561;SDS011;3314;50.890;4.722;2023-05-07T02:42:45;12.7;;;3.9;;
6561;SDS011;3314;50.890;4.722;2023-05-07T02:44:45;10.6;;;4.5;;
6561;SDS011;3314;50.890;4.722;2023-05-07T02:46:45;11.5;;;4.0;;
6561;SDS011;3314;50.890;4.722;2023-05-07T02:48:44;10.6;;;4.2;;
6561;SDS011;3314;50.890;4.722;2023-05-07T02:50:44;10.8;;;4.2;;
6561;SDS011;3314;50.890;4.722;2023-05-07T02:52:44;12.5;;;4.0;;
6561;SDS011;3314;50.890;4.722;2023-05-07T02:54:44;12.8;;;4.6;;
6561;SDS011;3314;50.890;4.722;2023-05-07T02:56:44;9.4;;;3.6;;
6561;SDS011;3314;50.890;4.722;2023-05-07T02:58:43;12.7;;;4.1;;
6561;SDS011;3314;50.890;4.722;2023-05-07T03:00:43;10.2;;;4.0;;
6561;SDS011;3314;50.890;4.722;2023-05-07T03:02:43;11.1;;;4.2;;
6561;SDS011;3314;50.890;4.722;2023-05-07T03:04:43;13.9;;;5.9;;
6561;SDS011;3314;50.890;4.722;2023-05-07T03:06:43;12.8;;;4.9;;
6561;SDS011;3314;50.890;4.722;2023-05-07T03:08:42;13.5;;;4.4;;
6561;SDS011;3314;50.890;4.722;2023-05-07T03:10:42;13.2;;;5.1;;
6561;SDS011;3314;50.890;4.722;2023-05-07T03:12:42;17.0;;;5.8;;
6561;SDS011;3314;50.890;4.722;2023-05-07T03:14:42;12.0;;;5.6;;
6561;SDS011;3314;50.890;4.722;2023-05-07T03:16:41;11.2;;;4.0;;
6561;SDS011;3314;50.890;4.722;2023-05-07T03:18:41;14.3;;;4.4;;
6561;SDS011;3314;50.890;4.722;2023-05-07T03:20:41;11.0;;;4.5;;
6561;SDS011;3314;50.890;4.722;2023-05-07T03:22:41;13.2;;;5.1;;
6561;SDS011;3314;50.890;4.722;2023-05-07T03:24:41;15.9;;;5.0;;
6561;SDS011;3314;50.890;4.722;2023-05-07T03:26:40;12.2;;;5.1;;
6561;SDS011;3314;50.890;4.722;2023-05-07T03:28:40;11.4;;;4.6;;
6561;SDS011;3314;50.890;4.722;2023-05-07T03:30:40;15.0;;;5.5;;
6561;SDS011;3314;50.890;4.722;2023-05-07T03:32:40;12.7;;;4.3;;
6561;SDS011;3314;50.890;4.722;2023-05-07T03:34:40;12.0;;;4.2;;
6561;SDS011;3314;50.890;4.722;2023-05-07T03:36:42;15.0;;;4.6;;
6561;SDS011;3314;50.890;4.722;2023-05-07T03:38:42;10.7;;;4.1;;
6561;SDS011;3314;50.890;4.722;2023-05-07T03:40:42;14.5;;;4.7;;
6561;SDS011;3314;50.890;4.722;2023-05-07T03:42:41;10.7;;;4.4;;
6561;SDS011;3314;50.890;4.722;2023-05-07T03:44:41;13.0;;;5.0;;
6561;SDS011;3314;50.890;4.722;2023-05-07T03:46:41;11.8;;;4.8;;
6561;SDS011;3314;50.890;4.722;2023-05-07T03:48:40;12.9;;;4.9;;
6561;SDS011;3314;50.890;4.722;2023-05-07T03:50:40;13.1;;;5.9;;
6561;SDS011;3314;50.890;4.722;2023-05-07T03:52:39;15.8;;;5.8;;
6561;SDS011;3314;50.890;4.722;2023-05-07T03:54:39;11.5;;;5.1;;
6561;SDS011;3314;50.890;4.722;2023-05-07T03:56:39;13.9;;;5.5;;
6561;SDS011;3314;50.890;4.722;2023-05-07T03:58:38;13.9;;;5.7;;
6561;SDS011;3314;50.890;4.722;2023-05-07T04:00:40;13.2;;;6.2;;
6561;SDS011;3314;50.890;4.722;2023-05-07T04:02:40;13.3;;;6.0;;
6561;SDS011;3314;50.890;4.722;2023-05-07T04:04:39;14.4;;;5.7;;
6561;SDS011;3314;50.890;4.722;2023-05-07T04:06:39;16.3;;;6.4;;
6561;SDS011;3314;50.890;4.722;2023-05-07T04:08:39;13.2;;;5.9;;
6561;SDS011;3314;50.890;4.722;2023-05-07T04:10:38;14.0;;;6.5;;
6561;SDS011;3314;50.890;4.722;2023-05-07T04:12:38;13.1;;;5.7;;
6561;SDS011;3314;50.890;4.722;2023-05-07T04:14:37;14.6;;;6.6;;
6561;SDS011;3314;50.890;4.722;2023-05-07T04:16:37;14.9;;;6.5;;
6561;SDS011;3314;50.890;4.722;2023-05-07T04:18:37;17.4;;;6.5;;
6561;SDS011;3314;50.890;4.722;2023-05-07T04:20:37;17.7;;;6.7;;
6561;SDS011;3314;50.890;4.722;2023-05-07T04:22:36;15.5;;;6.5;;
6561;SDS011;3314;50.890;4.722;2023-05-07T04:24:36;15.7;;;7.0;;
6561;SDS011;3314;50.890;4.722;2023-05-07T04:26:36;16.4;;;5.8;;
6561;SDS011;3314;50.890;4.722;2023-05-07T04:28:35;14.3;;;6.3;;
6561;SDS011;3314;50.890;4.722;2023-05-07T04:30:35;16.2;;;6.8;;
6561;SDS011;3314;50.890;4.722;2023-05-07T04:32:36;16.1;;;6.5;;
6561;SDS011;3314;50.890;4.722;2023-05-07T04:34:36;16.5;;;6.9;;
6561;SDS011;3314;50.890;4.722;2023-05-07T04:36:36;15.5;;;6.7;;
6561;SDS011;3314;50.890;4.722;2023-05-07T04:38:36;15.6;;;6.9;;
6561;SDS011;3314;50.890;4.722;2023-05-07T04:40:36;15.3;;;7.0;;
6561;SDS011;3314;50.890;4.722;2023-05-07T04:42:36;15.0;;;6.5;;
6561;SDS011;3314;50.890;4.722;2023-05-07T04:44:37;17.0;;;7.2;;
6561;SDS011;3314;50.890;4.722;2023-05-07T04:46:36;14.3;;;6.4;;
6561;SDS011;3314;50.890;4.722;2023-05-07T04:48:36;16.1;;;6.5;;
6561;SDS011;3314;50.890;4.722;2023-05-07T04:50:36;15.9;;;6.4;;
6561;SDS011;3314;50.890;4.722;2023-05-07T04:52:36;15.3;;;6.3;;
6561;SDS011;3314;50.890;4.722;2023-05-07T04:54:36;13.9;;;6.2;;
6561;SDS011;3314;50.890;4.722;2023-05-07T04:56:35;15.3;;;6.6;;
6561;SDS011;3314;50.890;4.722;2023-05-07T04:58:35;15.6;;;7.0;;
6561;SDS011;3314;50.890;4.722;2023-05-07T05:00:35;16.4;;;6.5;;
6561;SDS011;3314;50.890;4.722;2023-05-07T05:02:35;14.1;;;5.9;;
6561;SDS011;3314;50.890;4.722;2023-05-07T05:04:35;17.5;;;7.4;;
6561;SDS011;3314;50.890;4.722;2023-05-07T05:06:35;14.1;;;6.1;;
6561;SDS011;3314;50.890;4.722;2023-05-07T05:08:34;15.0;;;6.2;;
6561;SDS011;3314;50.890;4.722;2023-05-07T05:10:34;14.3;;;6.2;;
6561;SDS011;3314;50.890;4.722;2023-05-07T05:12:33;14.3;;;6.4;;
6561;SDS011;3314;50.890;4.722;2023-05-07T05:14:33;12.5;;;6.0;;
6561;SDS011;3314;50.890;4.722;2023-05-07T05:16:33;16.6;;;6.9;;
6561;SDS011;3314;50.890;4.722;2023-05-07T05:18:32;15.4;;;6.3;;
6561;SDS011;3314;50.890;4.722;2023-05-07T05:20:32;12.5;;;5.7;;
6561;SDS011;3314;50.890;4.722;2023-05-07T05:22:32;15.5;;;6.2;;
6561;SDS011;3314;50.890;4.722;2023-05-07T05:24:31;13.7;;;5.6;;
6561;SDS011;3314;50.890;4.722;2023-05-07T05:26:31;14.7;;;6.7;;
6561;SDS011;3314;50.890;4.722;2023-05-07T05:28:31;14.7;;;6.8;;
6561;SDS011;3314;50.890;4.722;2023-05-07T05:30:30;14.6;;;6.6;;
6561;SDS011;3314;50.890;4.722;2023-05-07T05:32:30;14.5;;;6.5;;
6561;SDS011;3314;50.890;4.722;2023-05-07T05:34:30;14.2;;;6.7;;
6561;SDS011;3314;50.890;4.722;2023-05-07T05:36:31;12.7;;;5.4;;
6561;SDS011;3314;50.890;4.722;2023-05-07T05:38:30;17.1;;;6.3;;
6561;SDS011;3314;50.890;4.722;2023-05-07T05:40:30;15.3;;;6.3;;
6561;SDS011;3314;50.890;4.722;2023-05-07T05:42:30;14.2;;;6.5;;
6561;SDS011;3314;50.890;4.722;2023-05-07T05:44:29;14.9;;;6.9;;
6561;SDS011;3314;50.890;4.722;2023-05-07T05:46:29;20.0;;;7.3;;
6561;SDS011;3314;50.890;4.722;2023-05-07T05:48:29;13.0;;;5.8;;
6561;SDS011;3314;50.890;4.722;2023-05-07T05:50:29;14.7;;;6.3;;
6561;SDS011;3314;50.890;4.722;2023-05-07T05:52:29;13.2;;;6.6;;
6561;SDS011;3314;50.890;4.722;2023-05-07T05:54:28;14.8;;;6.8;;
6561;SDS011;3314;50.890;4.722;2023-05-07T05:56:28;17.6;;;6.8;;
6561;SDS011;3314;50.890;4.722;2023-05-07T05:58:28;13.6;;;6.2;;
6561;SDS011;3314;50.890;4.722;2023-05-07T06:00:27;15.2;;;6.6;;
6561;SDS011;3314;50.890;4.722;2023-05-07T06:02:27;15.5;;;6.3;;
6561;SDS011;3314;50.890;4.722;2023-05-07T06:04:27;15.7;;;6.3;;
6561;SDS011;3314;50.890;4.722;2023-05-07T06:06:27;14.9;;;6.4;;
6561;SDS011;3314;50.890;4.722;2023-05-07T06:08:28;16.5;;;6.8;;
6561;SDS011;3314;50.890;4.722;2023-05-07T06:10:28;20.5;;;6.6;;
6561;SDS011;3314;50.890;4.722;2023-05-07T06:12:28;14.5;;;6.3;;
6561;SDS011;3314;50.890;4.722;2023-05-07T06:14:27;16.9;;;6.3;;
6561;SDS011;3314;50.890;4.722;2023-05-07T06:16:27;15.6;;;6.8;;
6561;SDS011;3314;50.890;4.722;2023-05-07T06:18:27;15.3;;;6.6;;
6561;SDS011;3314;50.890;4.722;2023-05-07T06:20:26;17.4;;;7.0;;
6561;SDS011;3314;50.890;4.722;2023-05-07T06:22:26;18.2;;;5.9;;
6561;SDS011;3314;50.890;4.722;2023-05-07T06:24:26;16.4;;;5.7;;
6561;SDS011;3314;50.890;4.722;2023-05-07T06:26:25;15.7;;;6.4;;
6561;SDS011;3314;50.890;4.722;2023-05-07T06:28:25;15.0;;;5.9;;
6561;SDS011;3314;50.890;4.722;2023-05-07T06:30:32;14.3;;;6.4;;
6561;SDS011;3314;50.890;4.722;2023-05-07T06:32:31;17.7;;;6.3;;
6561;SDS011;3314;50.890;4.722;2023-05-07T06:34:31;14.5;;;5.6;;
6561;SDS011;3314;50.890;4.722;2023-05-07T06:36:31;15.0;;;6.0;;
6561;SDS011;3314;50.890;4.722;2023-05-07T06:38:30;16.2;;;6.4;;
6561;SDS011;3314;50.890;4.722;2023-05-07T06:40:30;15.4;;;5.3;;
6561;SDS011;3314;50.890;4.722;2023-05-07T06:42:30;16.2;;;6.4;;
6561;SDS011;3314;50.890;4.722;2023-05-07T06:44:29;18.3;;;6.0;;
6561;SDS011;3314;50.890;4.722;2023-05-07T06:46:29;21.9;;;6.3;;
6561;SDS011;3314;50.890;4.722;2023-05-07T06:48:29;17.8;;;5.7;;
6561;SDS011;3314;50.890;4.722;2023-05-07T06:50:29;15.3;;;5.0;;
6561;SDS011;3314;50.890;4.722;2023-05-07T06:52:28;17.1;;;5.0;;
6561;SDS011;3314;50.890;4.722;2023-05-07T06:54:28;19.1;;;4.3;;
6561;SDS011;3314;50.890;4.722;2023-05-07T06:56:28;14.5;;;4.6;;
6561;SDS011;3314;50.890;4.722;2023-05-07T06:58:28;12.7;;;4.0;;
6561;SDS011;3314;50.890;4.722;2023-05-07T07:00:27;12.3;;;3.6;;
6561;SDS011;3314;50.890;4.722;2023-05-07T07:02:27;9.1;;;3.2;;
6561;SDS011;3314;50.890;4.722;2023-05-07T07:04:27;12.5;;;4.0;;
6561;SDS011;3314;50.890;4.722;2023-05-07T07:06:27;13.6;;;3.5;;
6561;SDS011;3314;50.890;4.722;2023-05-07T07:08:34;13.8;;;3.9;;
6561;SDS011;3314;50.890;4.722;2023-05-07T07:10:24;15.5;;;3.3;;
6561;SDS011;3314;50.890;4.722;2023-05-07T07:12:26;12.3;;;3.4;;
6561;SDS011;3314;50.890;4.722;2023-05-07T07:14:26;10.5;;;3.7;;
6561;SDS011;3314;50.890;4.722;2023-05-07T07:16:25;16.5;;;3.9;;
6561;SDS011;3314;50.890;4.722;2023-05-07T07:18:36;11.7;;;3.6;;
6561;SDS011;3314;50.890;4.722;2023-05-07T07:20:39;12.9;;;3.4;;
6561;SDS011;3314;50.890;4.722;2023-05-07T07:22:26;11.9;;;3.3;;
6561;SDS011;3314;50.890;4.722;2023-05-07T07:24:26;14.4;;;3.6;;
6561;SDS011;3314;50.890;4.722;2023-05-07T07:26:26;11.7;;;3.4;;
6561;SDS011;3314;50.890;4.722;2023-05-07T07:28:25;9.4;;;2.8;;
6561;SDS011;3314;50.890;4.722;2023-05-07T07:30:26;11.5;;;3.2;;
6561;SDS011;3314;50.890;4.722;2023-05-07T07:32:26;14.2;;;3.5;;
6561;SDS011;3314;50.890;4.722;2023-05-07T07:34:26;11.7;;;3.5;;
6561;SDS011;3314;50.890;4.722;2023-05-07T07:36:26;13.4;;;3.4;;
6561;SDS011;3314;50.890;4.722;2023-05-07T07:38:16;11.0;;;2.8;;
6561;SDS011;3314;50.890;4.722;2023-05-07T07:40:16;13.0;;;3.1;;
6561;SDS011;3314;50.890;4.722;2023-05-07T07:42:16;11.2;;;3.1;;
6561;SDS011;3314;50.890;4.722;2023-05-07T07:44:15;8.9;;;2.1;;
6561;SDS011;3314;50.890;4.722;2023-05-07T07:46:15;9.8;;;2.6;;
6561;SDS011;3314;50.890;4.722;2023-05-07T07:48:18;11.2;;;2.8;;
6561;SDS011;3314;50.890;4.722;2023-05-07T07:50:18;10.5;;;2.5;;
6561;SDS011;3314;50.890;4.722;2023-05-07T07:52:18;15.4;;;3.1;;
6561;SDS011;3314;50.890;4.722;2023-05-07T07:54:17;8.0;;;2.2;;
6561;SDS011;3314;50.890;4.722;2023-05-07T07:56:17;10.3;;;2.6;;
6561;SDS011;3314;50.890;4.722;2023-05-07T07:58:17;11.8;;;2.7;;
6561;SDS011;3314;50.890;4.722;2023-05-07T08:00:17;10.6;;;2.4;;
6561;SDS011;3314;50.890;4.722;2023-05-07T08:02:17;10.1;;;2.6;;
6561;SDS011;3314;50.890;4.722;2023-05-07T08:04:16;14.5;;;3.3;;
6561;SDS011;3314;50.890;4.722;2023-05-07T08:06:16;15.2;;;3.5;;
6561;SDS011;3314;50.890;4.722;2023-05-07T08:08:16;10.0;;;2.6;;
6561;SDS011;3314;50.890;4.722;2023-05-07T08:10:21;11.4;;;3.1;;
6561;SDS011;3314;50.890;4.722;2023-05-07T08:12:21;13.7;;;2.9;;
6561;SDS011;3314;50.890;4.722;2023-05-07T08:14:20;13.0;;;3.2;;
6561;SDS011;3314;50.890;4.722;2023-05-07T08:16:20;11.0;;;2.9;;
6561;SDS011;3314;50.890;4.722;2023-05-07T08:18:20;11.6;;;2.9;;
6561;SDS011;3314;50.890;4.722;2023-05-07T08:20:20;13.1;;;2.5;;
6561;SDS011;3314;50.890;4.722;2023-05-07T08:22:19;14.9;;;2.9;;
6561;SDS011;3314;50.890;4.722;2023-05-07T08:24:19;11.3;;;2.6;;
6561;SDS011;3314;50.890;4.722;2023-05-07T08:26:19;13.4;;;2.1;;
6561;SDS011;3314;50.890;4.722;2023-05-07T08:28:19;10.4;;;2.8;;
6561;SDS011;3314;50.890;4.722;2023-05-07T08:30:19;11.0;;;2.5;;
6561;SDS011;3314;50.890;4.722;2023-05-07T08:32:19;12.0;;;2.8;;
6561;SDS011;3314;50.890;4.722;2023-05-07T08:34:18;10.2;;;2.1;;
6561;SDS011;3314;50.890;4.722;2023-05-07T08:36:19;11.9;;;2.4;;
6561;SDS011;3314;50.890;4.722;2023-05-07T08:38:19;12.0;;;2.9;;
6561;SDS011;3314;50.890;4.722;2023-05-07T08:40:22;12.4;;;2.4;;
6561;SDS011;3314;50.890;4.722;2023-05-07T08:42:11;8.3;;;2.0;;
6561;SDS011;3314;50.890;4.722;2023-05-07T08:44:12;11.7;;;2.3;;
6561;SDS011;3314;50.890;4.722;2023-05-07T08:46:12;11.9;;;2.3;;
6561;SDS011;3314;50.890;4.722;2023-05-07T08:48:16;9.7;;;2.7;;
6561;SDS011;3314;50.890;4.722;2023-05-07T08:50:16;8.7;;;2.5;;
6561;SDS011;3314;50.890;4.722;2023-05-07T08:52:15;8.6;;;2.5;;
6561;SDS011;3314;50.890;4.722;2023-05-07T08:54:16;10.9;;;3.0;;
6561;SDS011;3314;50.890;4.722;2023-05-07T08:56:16;9.9;;;2.7;;
6561;SDS011;3314;50.890;4.722;2023-05-07T08:58:16;9.4;;;2.5;;
6561;SDS011;3314;50.890;4.722;2023-05-07T09:00:16;10.1;;;2.4;;
6561;SDS011;3314;50.890;4.722;2023-05-07T09:02:16;12.4;;;2.7;;
6561;SDS011;3314;50.890;4.722;2023-05-07T09:04:16;8.2;;;2.5;;
6561;SDS011;3314;50.890;4.722;2023-05-07T09:06:16;8.0;;;2.2;;
6561;SDS011;3314;50.890;4.722;2023-05-07T09:08:15;9.2;;;2.3;;
6561;SDS011;3314;50.890;4.722;2023-05-07T09:10:15;13.5;;;3.0;;
6561;SDS011;3314;50.890;4.722;2023-05-07T09:12:15;8.0;;;2.2;;
6561;SDS011;3314;50.890;4.722;2023-05-07T09:14:16;7.9;;;1.8;;
6561;SDS011;3314;50.890;4.722;2023-05-07T09:16:15;11.5;;;2.7;;
6561;SDS011;3314;50.890;4.722;2023-05-07T09:18:18;15.2;;;2.7;;
6561;SDS011;3314;50.890;4.722;2023-05-07T09:20:14;8.1;;;1.9;;
6561;SDS011;3314;50.890;4.722;2023-05-07T09:24:06;7.8;;;2.1;;
6561;SDS011;3314;50.890;4.722;2023-05-07T09:26:11;7.8;;;1.8;;
6561;SDS011;3314;50.890;4.722;2023-05-07T09:28:11;12.5;;;2.9;;
6561;SDS011;3314;50.890;4.722;2023-05-07T09:30:11;9.4;;;2.2;;
6561;SDS011;3314;50.890;4.722;2023-05-07T09:32:11;9.9;;;2.3;;
6561;SDS011;3314;50.890;4.722;2023-05-07T09:34:11;8.2;;;2.1;;
6561;SDS011;3314;50.890;4.722;2023-05-07T09:36:10;9.2;;;2.4;;
6561;SDS011;3314;50.890;4.722;2023-05-07T09:38:10;10.3;;;2.3;;
6561;SDS011;3314;50.890;4.722;2023-05-07T09:40:11;10.7;;;2.1;;
6561;SDS011;3314;50.890;4.722;2023-05-07T09:42:07;7.7;;;1.6;;
6561;SDS011;3314;50.890;4.722;2023-05-07T09:44:12;10.9;;;2.5;;
6561;SDS011;3314;50.890;4.722;2023-05-07T09:46:13;8.8;;;2.3;;
6561;SDS011;3314;50.890;4.722;2023-05-07T09:48:12;9.4;;;2.0;;
6561;SDS011;3314;50.890;4.722;2023-05-07T09:50:05;14.7;;;2.9;;
6561;SDS011;3314;50.890;4.722;2023-05-07T09:52:09;13.3;;;2.1;;
6561;SDS011;3314;50.890;4.722;2023-05-07T09:54:09;13.6;;;2.7;;
6561;SDS011;3314;50.890;4.722;2023-05-07T09:56:09;14.5;;;2.4;;
6561;SDS011;3314;50.890;4.722;2023-05-07T09:58:11;11.9;;;2.6;;
6561;SDS011;3314;50.890;4.722;2023-05-07T10:00:13;12.3;;;2.8;;
6561;SDS011;3314;50.890;4.722;2023-05-07T10:02:03;11.6;;;2.5;;
6561;SDS011;3314;50.890;4.722;2023-05-07T10:04:04;10.9;;;2.4;;
6561;SDS011;3314;50.890;4.722;2023-05-07T10:06:05;11.1;;;2.5;;
6561;SDS011;3314;50.890;4.722;2023-05-07T10:08:05;13.0;;;2.7;;
6561;SDS011;3314;50.890;4.722;2023-05-07T10:10:05;9.3;;;2.5;;
6561;SDS011;3314;50.890;4.722;2023-05-07T10:12:05;10.1;;;2.8;;
6561;SDS011;3314;50.890;4.722;2023-05-07T10:14:06;11.3;;;2.2;;
6561;SDS011;3314;50.890;4.722;2023-05-07T10:16:06;13.0;;;2.2;;
6561;SDS011;3314;50.890;4.722;2023-05-07T10:18:05;10.4;;;2.5;;
6561;SDS011;3314;50.890;4.722;2023-05-07T10:20:06;9.1;;;2.2;;
6561;SDS011;3314;50.890;4.722;2023-05-07T10:22:06;9.4;;;2.1;;
6561;SDS011;3314;50.890;4.722;2023-05-07T10:24:09;11.1;;;2.1;;
6561;SDS011;3314;50.890;4.722;2023-05-07T10:26:10;14.9;;;2.2;;
6561;SDS011;3314;50.890;4.722;2023-05-07T10:28:10;10.2;;;2.0;;
6561;SDS011;3314;50.890;4.722;2023-05-07T10:30:12;9.0;;;1.7;;
6561;SDS011;3314;50.890;4.722;2023-05-07T10:32:08;8.7;;;1.8;;
6561;SDS011;3314;50.890;4.722;2023-05-07T10:34:00;12.5;;;1.6;;
6561;SDS011;3314;50.890;4.722;2023-05-07T10:36:04;6.9;;;1.3;;
6561;SDS011;3314;50.890;4.722;2023-05-07T10:38:04;7.8;;;1.6;;
6561;SDS011;3314;50.890;4.722;2023-05-07T10:40:05;10.8;;;1.9;;
6561;SDS011;3314;50.890;4.722;2023-05-07T10:42:08;8.6;;;1.9;;
6561;SDS011;3314;50.890;4.722;2023-05-07T10:44:08;7.5;;;1.8;;
6561;SDS011;3314;50.890;4.722;2023-05-07T10:46:11;9.5;;;2.2;;
6561;SDS011;3314;50.890;4.722;2023-05-07T10:48:08;11.1;;;2.2;;
6561;SDS011;3314;50.890;4.722;2023-05-07T10:50:23;8.7;;;1.9;;
6561;SDS011;3314;50.890;4.722;2023-05-07T10:52:15;7.6;;;2.0;;
6561;SDS011;3314;50.890;4.722;2023-05-07T10:54:18;10.5;;;2.2;;
6561;SDS011;3314;50.890;4.722;2023-05-07T10:56:37;9.5;;;2.0;;
6561;SDS011;3314;50.890;4.722;2023-05-07T10:58:22;8.8;;;1.9;;
6561;SDS011;3314;50.890;4.722;2023-05-07T10:59:58;7.9;;;1.9;;
6561;SDS011;3314;50.890;4.722;2023-05-07T11:01:58;9.2;;;2.0;;
6561;SDS011;3314;50.890;4.722;2023-05-07T11:04:13;11.1;;;1.6;;
6561;SDS011;3314;50.890;4.722;2023-05-07T11:06:08;8.5;;;1.6;;
6561;SDS011;3314;50.890;4.722;2023-05-07T11:07:58;9.1;;;1.6;;
6561;SDS011;3314;50.890;4.722;2023-05-07T11:10:02;7.3;;;1.6;;
6561;SDS011;3314;50.890;4.722;2023-05-07T11:12:02;8.0;;;1.2;;
6561;SDS011;3314;50.890;4.722;2023-05-07T11:14:02;7.9;;;1.7;;
6561;SDS011;3314;50.890;4.722;2023-05-07T11:16:02;8.3;;;1.8;;
6561;SDS011;3314;50.890;4.722;2023-05-07T11:18:04;6.8;;;1.4;;
6561;SDS011;3314;50.890;4.722;2023-05-07T11:20:05;10.2;;;1.7;;
6561;SDS011;3314;50.890;4.722;2023-05-07T11:22:05;8.9;;;1.4;;
6561;SDS011;3314;50.890;4.722;2023-05-07T11:24:05;8.6;;;1.6;;
6561;SDS011;3314;50.890;4.722;2023-05-07T11:26:06;7.9;;;1.9;;
6561;SDS011;3314;50.890;4.722;2023-05-07T11:28:06;9.8;;;1.7;;
6561;SDS011;3314;50.890;4.722;2023-05-07T11:29:56;10.2;;;2.1;;
6561;SDS011;3314;50.890;4.722;2023-05-07T11:31:55;12.5;;;2.2;;
6561;SDS011;3314;50.890;4.722;2023-05-07T11:33:55;9.0;;;1.8;;
6561;SDS011;3314;50.890;4.722;2023-05-07T11:35:56;9.1;;;1.6;;
6561;SDS011;3314;50.890;4.722;2023-05-07T11:37:58;8.3;;;1.3;;
6561;SDS011;3314;50.890;4.722;2023-05-07T11:40:06;9.1;;;1.2;;
6561;SDS011;3314;50.890;4.722;2023-05-07T11:41:55;8.7;;;1.6;;
6561;SDS011;3314;50.890;4.722;2023-05-07T11:43:55;7.7;;;1.5;;
6561;SDS011;3314;50.890;4.722;2023-05-07T11:45:58;8.8;;;1.2;;
6561;SDS011;3314;50.890;4.722;2023-05-07T11:48:04;9.7;;;1.9;;
6561;SDS011;3314;50.890;4.722;2023-05-07T11:50:04;10.9;;;1.8;;
6561;SDS011;3314;50.890;4.722;2023-05-07T11:51:54;11.1;;;1.7;;
6561;SDS011;3314;50.890;4.722;2023-05-07T11:53:54;9.5;;;1.5;;
6561;SDS011;3314;50.890;4.722;2023-05-07T11:55:54;8.9;;;1.5;;
6561;SDS011;3314;50.890;4.722;2023-05-07T11:57:54;9.1;;;1.5;;
6561;SDS011;3314;50.890;4.722;2023-05-07T11:59:54;7.1;;;1.2;;
6561;SDS011;3314;50.890;4.722;2023-05-07T12:01:56;10.2;;;1.8;;
6561;SDS011;3314;50.890;4.722;2023-05-07T12:03:56;11.0;;;2.1;;
6561;SDS011;3314;50.890;4.722;2023-05-07T12:05:56;7.4;;;1.6;;
6561;SDS011;3314;50.890;4.722;2023-05-07T12:07:56;7.8;;;1.7;;
6561;SDS011;3314;50.890;4.722;2023-05-07T12:09:56;9.3;;;1.3;;
6561;SDS011;3314;50.890;4.722;2023-05-07T12:11:56;8.2;;;1.6;;
6561;SDS011;3314;50.890;4.722;2023-05-07T12:13:56;14.3;;;1.9;;
6561;SDS011;3314;50.890;4.722;2023-05-07T12:15:57;9.4;;;1.9;;
6561;SDS011;3314;50.890;4.722;2023-05-07T12:17:56;8.2;;;1.5;;
6561;SDS011;3314;50.890;4.722;2023-05-07T12:19:56;10.2;;;1.8;;
6561;SDS011;3314;50.890;4.722;2023-05-07T12:21:56;11.5;;;2.0;;
6561;SDS011;3314;50.890;4.722;2023-05-07T12:23:56;10.5;;;1.8;;
6561;SDS011;3314;50.890;4.722;2023-05-07T12:25:56;9.3;;;1.5;;
6561;SDS011;3314;50.890;4.722;2023-05-07T12:27:58;8.8;;;1.3;;
6561;SDS011;3314;50.890;4.722;2023-05-07T12:29:59;13.1;;;1.8;;
6561;SDS011;3314;50.890;4.722;2023-05-07T12:31:59;9.6;;;1.6;;
6561;SDS011;3314;50.890;4.722;2023-05-07T12:33:58;8.5;;;1.1;;
6561;SDS011;3314;50.890;4.722;2023-05-07T12:35:58;10.2;;;1.6;;
6561;SDS011;3314;50.890;4.722;2023-05-07T12:38:00;6.6;;;1.2;;
6561;SDS011;3314;50.890;4.722;2023-05-07T12:40:03;8.0;;;1.1;;
6561;SDS011;3314;50.890;4.722;2023-05-07T12:41:52;6.4;;;1.0;;